createdAt,value
2022-11-14T00:00:52.400Z,100833.56
2022-11-14T00:03:18.765Z,100819.69
2022-11-14T00:05:46.218Z,100831.75
2022-11-14T00:08:17.100Z,100862.84
2022-11-14T00:10:47.753Z,100786.81
2022-11-14T00:13:14.902Z,100864.66
2022-11-14T00:15:41.497Z,100728.13
2022-11-14T00:18:08.176Z,100837.06
2022-11-14T00:20:34.491Z,100829.31
2022-11-14T00:23:00.892Z,100842.22
2022-11-14T00:25:27.393Z,100817.19
2022-11-14T00:27:57.514Z,100862.19
2022-11-14T00:30:24.081Z,100786.09
2022-11-14T00:32:50.483Z,100843.19
2022-11-14T00:35:17.021Z,100849.22
2022-11-14T00:37:43.479Z,100812.84
2022-11-14T00:40:10.057Z,100806.84
2022-11-14T00:42:36.495Z,100831.91
2022-11-14T00:45:03.204Z,100818.97
2022-11-14T00:47:29.554Z,100828.47
2022-11-14T00:49:55.896Z,100812.03
2022-11-14T00:52:22.232Z,100790.41
2022-11-14T00:54:48.619Z,100808.53
2022-11-14T00:57:14.942Z,100807.66
2022-11-14T00:59:41.304Z,100799.03
2022-11-14T01:02:07.661Z,100763.63
2022-11-14T01:04:34.296Z,100795.59
2022-11-14T01:07:00.718Z,100752.34
2022-11-14T01:09:27.180Z,100807.75
2022-11-14T01:11:53.632Z,100758.50
2022-11-14T01:14:20.040Z,100625.41
2022-11-14T01:16:46.382Z,100693.66
2022-11-14T01:19:12.729Z,100779.31
2022-11-14T01:21:39.150Z,100749.06
2022-11-14T01:24:06.078Z,100688.56
2022-11-14T01:26:32.410Z,100754.25
2022-11-14T01:28:58.982Z,100774.97
2022-11-14T01:31:26.125Z,100788.81
2022-11-14T01:33:53.784Z,100776.69
2022-11-14T01:36:20.728Z,100762.00
2022-11-14T01:38:47.136Z,100789.72
2022-11-14T01:41:15.735Z,100718.81
2022-11-14T01:43:43.163Z,100807.88
2022-11-14T01:46:25.765Z,100795.81
2022-11-14T01:48:54.217Z,100800.13
2022-11-14T01:51:32.503Z,100805.31
2022-11-14T01:54:02.399Z,100778.44
2022-11-14T01:56:46.550Z,100703.19
2022-11-14T01:59:18.025Z,100779.22
2022-11-14T02:01:48.069Z,100767.13
2022-11-14T02:04:27.249Z,100715.22
2022-11-14T02:06:57.258Z,100736.88
2022-11-14T02:09:24.109Z,100749.00
2022-11-14T02:11:51.997Z,100740.31
2022-11-14T02:14:18.303Z,100742.91
2022-11-14T02:16:55.646Z,100701.38
2022-11-14T02:19:52.306Z,100740.31
2022-11-14T02:22:19.091Z,100729.06
2022-11-14T02:24:46.073Z,100703.09
2022-11-14T02:27:14.364Z,100729.88
2022-11-14T02:29:40.879Z,100750.59
2022-11-14T02:32:10.626Z,100688.34
2022-11-14T02:34:37.942Z,100698.69
2022-11-14T02:37:04.396Z,100729.75
2022-11-14T02:39:30.799Z,100688.31
2022-11-14T02:41:57.203Z,100667.59
2022-11-14T02:44:23.730Z,100709.13
2022-11-14T02:46:50.162Z,100722.94
2022-11-14T02:49:16.532Z,100686.63
2022-11-14T02:51:43.112Z,100670.16
2022-11-14T02:54:09.480Z,100686.47
2022-11-14T02:56:35.869Z,100722.63
2022-11-14T02:59:02.184Z,100685.47
2022-11-14T03:01:28.623Z,100656.09
2022-11-14T03:03:55.076Z,100701.00
2022-11-14T03:06:21.434Z,100653.44
2022-11-14T03:08:47.740Z,100685.38
2022-11-14T03:11:14.116Z,100641.34
2022-11-14T03:13:40.533Z,100660.34
2022-11-14T03:16:08.829Z,100615.38
2022-11-14T03:18:35.833Z,100693.06
2022-11-14T03:21:11.765Z,100630.91
2022-11-14T03:23:38.184Z,100673.16
2022-11-14T03:26:07.495Z,100655.00
2022-11-14T03:28:34.340Z,100616.13
2022-11-14T03:31:00.709Z,100594.56
2022-11-14T03:33:27.090Z,100694.63
2022-11-14T03:35:53.437Z,100646.22
2022-11-14T03:38:23.103Z,100603.13
2022-11-14T03:40:50.640Z,100679.03
2022-11-14T03:43:17.744Z,100558.34
2022-11-14T03:45:44.740Z,100667.97
2022-11-14T03:48:11.562Z,100605.03
2022-11-14T03:50:37.963Z,100666.31
2022-11-14T03:53:04.558Z,100677.47
2022-11-14T03:55:30.977Z,100655.88
2022-11-14T03:57:57.328Z,100670.56
2022-11-14T04:00:23.728Z,100629.06
2022-11-14T04:02:50.084Z,100528.06
2022-11-14T04:05:16.531Z,100622.97
2022-11-14T04:07:42.867Z,100625.56
2022-11-14T04:10:09.309Z,100648.03
2022-11-14T04:12:35.624Z,100559.97
2022-11-14T04:15:01.988Z,100618.63
2022-11-14T04:17:28.352Z,100635.91
2022-11-14T04:19:54.690Z,100546.22
2022-11-14T04:22:21.100Z,100564.31
2022-11-14T04:24:47.549Z,100639.34
2022-11-14T04:27:13.911Z,100635.06
2022-11-14T04:29:40.241Z,100613.44
2022-11-14T04:32:06.608Z,100629.00
2022-11-14T04:34:33.096Z,100620.31
2022-11-14T04:36:59.490Z,100601.31
2022-11-14T04:39:25.936Z,100668.66
2022-11-14T04:41:52.282Z,100649.63
2022-11-14T04:44:18.626Z,100656.56
2022-11-14T04:46:45.027Z,100612.56
2022-11-14T04:49:11.355Z,100571.09
2022-11-14T04:51:37.695Z,100639.22
2022-11-14T04:54:04.144Z,100548.50
2022-11-14T04:56:30.537Z,100585.63
2022-11-14T04:58:56.972Z,100614.97
2022-11-14T05:01:23.363Z,100616.59
2022-11-14T05:03:49.741Z,100618.28
2022-11-14T05:06:16.247Z,100490.56
2022-11-14T05:08:42.765Z,100625.09
2022-11-14T05:11:14.650Z,100610.34
2022-11-14T05:13:41.085Z,100624.19
2022-11-14T05:16:07.618Z,100621.59
2022-11-14T05:18:34.035Z,100574.91
2022-11-14T05:21:01.136Z,100640.50
2022-11-14T05:23:27.792Z,100581.00
2022-11-14T05:26:05.716Z,100610.41
2022-11-14T05:28:32.791Z,100569.84
2022-11-14T05:31:04.470Z,100624.97
2022-11-14T05:33:31.297Z,100548.25
2022-11-14T05:36:09.145Z,100593.91
2022-11-14T05:38:35.790Z,100568.88
2022-11-14T05:41:13.696Z,100621.53
2022-11-14T05:43:40.836Z,100596.56
2022-11-14T05:46:11.021Z,100590.50
2022-11-14T05:48:38.201Z,100613.88
2022-11-14T05:51:06.814Z,100609.59
2022-11-14T05:53:34.200Z,100577.81
2022-11-14T05:56:06.514Z,100558.84
2022-11-14T05:58:34.130Z,100589.03
2022-11-14T06:01:08.818Z,100607.16
2022-11-14T06:03:38.372Z,100576.94
2022-11-14T06:06:07.162Z,100574.34
2022-11-14T06:08:34.471Z,100585.56
2022-11-14T06:11:06.378Z,100575.22
2022-11-14T06:13:33.537Z,100581.91
2022-11-14T06:16:05.027Z,100600.91
2022-11-14T06:18:32.852Z,100576.81
2022-11-14T06:21:08.167Z,100595.72
2022-11-14T06:23:34.699Z,100581.97
2022-11-14T06:26:02.901Z,100480.25
2022-11-14T06:28:30.115Z,100573.38
2022-11-14T06:31:00.943Z,100593.25
2022-11-14T06:33:28.536Z,100495.84
2022-11-14T06:35:59.389Z,100601.00
2022-11-14T06:38:26.211Z,100483.78
2022-11-14T06:40:52.801Z,100577.84
2022-11-14T06:43:19.109Z,100583.94
2022-11-14T06:45:45.520Z,100579.63
2022-11-14T06:48:11.853Z,100494.34
2022-11-14T06:50:38.210Z,100501.13
2022-11-14T06:53:04.528Z,100567.56
2022-11-14T06:55:30.953Z,100545.13
2022-11-14T06:57:57.276Z,100584.81
2022-11-14T07:00:23.747Z,100614.97
2022-11-14T07:02:50.187Z,100533.78
2022-11-14T07:05:16.590Z,100595.78
2022-11-14T07:07:42.892Z,100531.91
2022-11-14T07:10:09.744Z,100550.03
2022-11-14T07:12:36.099Z,100463.81
2022-11-14T07:15:02.416Z,100610.31
2022-11-14T07:17:31.441Z,100587.88
2022-11-14T07:19:58.030Z,100587.00
2022-11-14T07:22:24.372Z,100569.75
2022-11-14T07:24:50.707Z,100611.19
2022-11-14T07:27:17.032Z,100567.94
2022-11-14T07:29:43.347Z,100600.69
2022-11-14T07:32:09.641Z,100592.78
2022-11-14T07:34:35.949Z,100535.03
2022-11-14T07:37:02.443Z,100552.38
2022-11-14T07:39:28.977Z,100569.63
2022-11-14T07:41:55.284Z,100581.63
2022-11-14T07:44:21.608Z,100611.75
2022-11-14T07:46:49.993Z,100607.41
2022-11-14T07:49:17.009Z,100578.16
2022-11-14T07:51:43.360Z,100577.31
2022-11-14T07:54:11.920Z,100547.06
2022-11-14T07:56:38.740Z,100620.38
2022-11-14T07:59:05.120Z,100571.97
2022-11-14T08:01:31.553Z,100607.38
2022-11-14T08:03:57.938Z,100506.47
2022-11-14T08:06:24.283Z,100563.34
2022-11-14T08:08:50.636Z,100594.41
2022-11-14T08:11:36.902Z,100589.88
2022-11-14T08:14:03.301Z,100576.19
2022-11-14T08:16:29.613Z,100574.38
2022-11-14T08:18:55.958Z,100555.34
2022-11-14T08:21:22.414Z,100588.09
2022-11-14T08:23:48.812Z,100537.97
2022-11-14T08:26:15.158Z,100572.34
2022-11-14T08:28:41.657Z,100556.91
2022-11-14T08:31:10.123Z,100550.75
2022-11-14T08:33:36.469Z,100548.00
2022-11-14T08:36:03.694Z,100584.22
2022-11-14T08:38:31.988Z,100579.75
2022-11-14T08:40:59.489Z,100567.59
2022-11-14T08:43:26.339Z,100493.34
2022-11-14T08:45:52.724Z,100547.63
2022-11-14T08:48:19.114Z,100552.75
2022-11-14T08:50:45.585Z,100573.25
2022-11-14T08:53:11.928Z,100563.72
2022-11-14T08:55:43.961Z,100539.63
2022-11-14T08:58:10.286Z,100483.59
2022-11-14T09:00:36.633Z,100510.16
2022-11-14T09:03:08.632Z,100524.78
2022-11-14T09:05:36.366Z,100540.03
2022-11-14T09:08:03.902Z,100507.38
2022-11-14T09:10:30.340Z,100509.69
2022-11-14T09:13:00.756Z,100467.31
2022-11-14T09:15:28.999Z,100475.94
2022-11-14T09:17:56.674Z,100533.28
2022-11-14T09:20:29.816Z,100529.69
2022-11-14T09:23:00.025Z,100507.00
2022-11-14T09:25:26.504Z,100494.28
2022-11-14T09:27:53.403Z,100460.50
2022-11-14T09:30:19.899Z,100464.88
2022-11-14T09:32:46.333Z,100480.06
2022-11-14T09:35:12.814Z,100449.00
2022-11-14T09:37:39.669Z,100529.63
2022-11-14T09:40:07.209Z,100503.97
2022-11-14T09:43:03.366Z,100505.72
2022-11-14T09:45:30.252Z,100507.50
2022-11-14T09:48:06.705Z,100503.28
2022-11-14T09:50:37.033Z,100520.38
2022-11-14T09:53:10.356Z,100527.91
2022-11-14T09:55:37.573Z,100491.84
2022-11-14T09:58:05.251Z,100545.03
2022-11-14T10:01:04.969Z,100544.38
2022-11-14T10:04:09.350Z,100511.16
2022-11-14T10:06:53.001Z,100486.16
2022-11-14T10:09:58.094Z,100527.38
2022-11-14T10:12:43.164Z,100526.41
2022-11-14T10:15:23.945Z,100504.84
2022-11-14T10:18:05.291Z,100523.84
2022-11-14T10:20:44.697Z,100516.91
2022-11-14T10:23:23.147Z,100489.47
2022-11-14T10:26:16.126Z,100528.13
2022-11-14T10:29:33.240Z,100473.75
2022-11-14T10:32:18.877Z,100472.06
2022-11-14T10:35:01.527Z,100521.06
2022-11-14T10:37:42.296Z,100493.38
2022-11-14T10:40:40.997Z,100518.56
2022-11-14T10:43:18.712Z,100485.59
2022-11-14T10:45:50.724Z,100479.59
2022-11-14T10:48:31.533Z,100520.88
2022-11-14T10:51:02.591Z,100487.34
2022-11-14T10:53:47.165Z,100515.00
2022-11-14T10:56:14.624Z,100512.44
2022-11-14T10:58:48.441Z,100446.88
2022-11-14T11:01:39.696Z,100505.94
2022-11-14T11:04:14.889Z,100498.66
2022-11-14T11:06:41.412Z,100467.53
2022-11-14T11:09:31.383Z,100484.63
2022-11-14T11:12:01.672Z,100508.72
2022-11-14T11:14:29.460Z,100459.53
2022-11-14T11:17:15.559Z,100505.16
2022-11-14T11:19:42.870Z,100495.59
2022-11-14T11:22:35.090Z,100442.13
2022-11-14T11:25:01.490Z,100442.81
2022-11-14T11:27:29.367Z,100456.78
2022-11-14T11:30:04.135Z,100440.72
2022-11-14T11:32:30.688Z,100420.63
2022-11-14T11:35:00.094Z,100452.13
2022-11-14T11:37:35.511Z,100479.53
2022-11-14T11:40:06.600Z,100467.44
2022-11-14T11:43:31.677Z,100440.91
2022-11-14T11:45:34.605Z,100449.56
2022-11-14T11:48:08.945Z,100452.34
2022-11-14T11:50:36.513Z,100467.69
2022-11-14T11:53:22.123Z,100457.03
2022-11-14T11:55:53.248Z,100453.34
2022-11-14T11:58:27.623Z,100423.75
2022-11-14T12:00:57.820Z,100445.56
2022-11-14T12:03:25.975Z,100382.84
2022-11-14T12:05:52.334Z,100444.16
2022-11-14T12:08:30.912Z,100420.25
2022-11-14T12:10:59.095Z,100430.56
2022-11-14T12:13:46.064Z,100389.63
2022-11-14T12:16:36.610Z,100356.38
2022-11-14T12:19:32.232Z,100437.94
2022-11-14T12:22:29.998Z,100435.50
2022-11-14T12:25:17.115Z,100434.69
2022-11-14T12:28:09.865Z,100436.56
2022-11-14T12:30:39.334Z,100400.59
2022-11-14T12:33:16.147Z,100397.97
2022-11-14T12:35:52.387Z,100357.72
2022-11-14T12:38:21.054Z,100387.94
2022-11-14T12:40:54.206Z,100423.94
2022-11-14T12:43:37.826Z,100388.63
2022-11-14T12:46:11.368Z,100415.09
2022-11-14T12:48:38.930Z,100372.91
2022-11-14T12:51:25.219Z,100361.25
2022-11-14T12:53:52.650Z,100386.53
2022-11-14T12:56:31.287Z,100395.63
2022-11-14T12:59:13.350Z,100373.78
2022-11-14T13:01:51.971Z,100389.50
2022-11-14T13:04:42.963Z,100391.22
2022-11-14T13:07:33.895Z,100380.47
2022-11-14T13:10:14.638Z,100359.91
2022-11-14T13:13:01.658Z,100392.66
2022-11-14T13:15:49.411Z,100389.25
2022-11-14T13:18:45.050Z,100363.50
2022-11-14T13:21:45.614Z,100348.06
2022-11-14T13:24:21.461Z,100393.50
2022-11-14T13:26:50.597Z,100343.75
2022-11-14T13:29:40.955Z,100399.69
2022-11-14T13:32:11.805Z,100376.69
2022-11-14T13:34:58.327Z,100380.06
2022-11-14T13:37:42.273Z,100328.03
2022-11-14T13:40:35.378Z,100378.66
2022-11-14T13:43:12.697Z,100413.91
2022-11-14T13:46:06.855Z,100407.63
2022-11-14T13:49:03.001Z,100376.03
2022-11-14T13:51:46.423Z,100387.41
2022-11-14T13:54:17.845Z,100405.41
2022-11-14T13:57:00.893Z,100373.56
2022-11-14T13:59:48.180Z,100394.75
2022-11-14T14:02:40.451Z,100393.91
2022-11-14T14:05:30.041Z,100391.41
2022-11-14T14:08:01.493Z,100336.34
2022-11-14T14:10:59.326Z,100393.31
2022-11-14T14:13:49.827Z,100388.00
2022-11-14T14:16:41.650Z,100387.91
2022-11-14T14:19:24.505Z,100360.66
2022-11-14T14:22:07.233Z,100377.78
2022-11-14T14:24:59.479Z,100350.78
2022-11-14T14:28:05.118Z,100371.47
2022-11-14T14:30:31.492Z,100372.34
2022-11-14T14:33:07.032Z,100363.59
2022-11-14T14:35:40.223Z,100331.72
2022-11-14T14:38:13.206Z,100338.94
2022-11-14T14:40:41.869Z,100356.66
2022-11-14T14:43:22.123Z,100364.44
2022-11-14T14:45:53.079Z,100299.97
2022-11-14T14:48:25.085Z,100346.56
2022-11-14T14:50:56.534Z,100319.81
2022-11-14T14:53:25.637Z,100327.50
2022-11-14T14:56:04.278Z,100351.66
2022-11-14T14:58:33.479Z,100278.50
2022-11-14T15:01:04.927Z,100345.47
2022-11-14T15:03:40.446Z,100334.63
2022-11-14T15:06:32.900Z,100343.72
2022-11-14T15:09:08.124Z,100323.31
2022-11-14T15:11:39.786Z,100351.56
2022-11-14T15:14:06.782Z,100309.47
2022-11-14T15:16:33.546Z,100305.97
2022-11-14T15:19:00.660Z,100324.16
2022-11-14T15:21:28.871Z,100306.94
2022-11-14T15:24:10.642Z,100341.19
2022-11-14T15:26:37.049Z,100241.53
2022-11-14T15:29:16.577Z,100272.53
2022-11-14T15:31:52.740Z,100305.88
2022-11-14T15:34:26.592Z,100294.84
2022-11-14T15:37:25.984Z,100291.91
2022-11-14T15:39:52.442Z,100325.78
2022-11-14T15:42:18.766Z,100327.38
2022-11-14T15:44:46.811Z,100306.06
2022-11-14T15:47:19.752Z,100278.78
2022-11-14T15:50:01.010Z,100316.44
2022-11-14T15:52:33.297Z,100319.03
2022-11-14T15:54:59.877Z,100267.53
2022-11-14T15:57:26.381Z,100326.59
2022-11-14T15:59:52.870Z,100190.91
2022-11-14T16:02:22.892Z,100295.66
2022-11-14T16:04:51.888Z,100279.38
2022-11-14T16:07:19.124Z,100313.50
2022-11-14T16:09:45.674Z,100296.75
2022-11-14T16:12:11.961Z,100221.16
2022-11-14T16:14:38.465Z,100318.75
2022-11-14T16:17:04.994Z,100316.19
2022-11-14T16:19:31.751Z,100315.41
2022-11-14T16:22:02.849Z,100313.59
2022-11-14T16:24:34.003Z,100291.31
2022-11-14T16:27:00.850Z,100296.63
2022-11-14T16:29:27.350Z,100245.09
2022-11-14T16:31:56.454Z,100244.16
2022-11-14T16:34:25.876Z,100320.63
2022-11-14T16:37:02.737Z,100312.16
2022-11-14T16:39:29.808Z,100284.69
2022-11-14T16:42:02.854Z,100317.13
2022-11-14T16:44:30.156Z,100316.53
2022-11-14T16:46:56.565Z,100258.88
2022-11-14T16:49:23.024Z,100275.94
2022-11-14T16:51:51.296Z,100275.88
2022-11-14T16:54:19.194Z,100282.72
2022-11-14T16:56:45.599Z,100256.91
2022-11-14T16:59:12.313Z,100262.06
2022-11-14T17:01:39.042Z,100297.28
2022-11-14T17:04:05.719Z,100184.97
2022-11-14T17:06:32.189Z,100178.28
2022-11-14T17:08:59.871Z,100314.56
2022-11-14T17:11:26.729Z,100327.66
2022-11-14T17:13:55.164Z,100315.41
2022-11-14T17:16:21.539Z,100294.03
2022-11-14T17:18:53.794Z,100294.91
2022-11-14T17:21:20.824Z,100257.00
2022-11-14T17:23:47.234Z,100272.44
2022-11-14T17:26:14.117Z,100309.34
2022-11-14T17:28:41.443Z,100284.88
2022-11-14T17:31:08.585Z,100305.22
2022-11-14T17:33:35.742Z,100292.31
2022-11-14T17:36:04.403Z,100313.81
2022-11-14T17:38:35.031Z,100271.06
2022-11-14T17:41:05.537Z,100303.41
2022-11-14T17:43:39.572Z,100292.41
2022-11-14T17:46:12.599Z,100246.25
2022-11-14T17:48:42.019Z,100274.56
2022-11-14T17:51:12.587Z,100288.00
2022-11-14T17:53:39.516Z,100290.72
2022-11-14T17:56:07.705Z,100205.56
2022-11-14T17:58:34.204Z,100232.22
2022-11-14T18:01:00.795Z,100305.50
2022-11-14T18:03:27.555Z,100277.28
2022-11-14T18:06:04.799Z,100298.13
2022-11-14T18:08:31.483Z,100240.66
2022-11-14T18:11:01.991Z,100282.88
2022-11-14T18:13:28.436Z,100310.41
2022-11-14T18:15:55.175Z,100283.03
2022-11-14T18:18:21.513Z,100220.47
2022-11-14T18:20:47.844Z,100222.34
2022-11-14T18:23:14.284Z,100205.91
2022-11-14T18:25:40.624Z,100204.25
2022-11-14T18:28:07.084Z,100192.09
2022-11-14T18:30:41.282Z,100166.53
2022-11-14T18:33:08.368Z,100211.22
2022-11-14T18:35:34.715Z,100190.03
2022-11-14T18:38:01.129Z,100226.38
2022-11-14T18:40:27.463Z,100267.50
2022-11-14T18:42:54.327Z,100202.13
2022-11-14T18:45:20.654Z,100215.19
2022-11-14T18:47:47.035Z,100191.34
2022-11-14T18:50:14.080Z,100213.59
2022-11-14T18:52:40.465Z,100244.78
2022-11-14T18:55:10.114Z,100193.25
2022-11-14T18:57:36.581Z,100186.44
2022-11-14T19:00:04.397Z,100253.38
2022-11-14T19:02:31.639Z,100303.13
2022-11-14T19:04:58.060Z,100175.88
2022-11-14T19:07:25.969Z,100289.16
2022-11-14T19:09:52.418Z,100156.03
2022-11-14T19:12:18.843Z,100283.88
2022-11-14T19:14:46.209Z,100153.53
2022-11-14T19:17:13.481Z,100274.72
2022-11-14T19:19:39.794Z,100177.72
2022-11-14T19:22:06.243Z,100274.84
2022-11-14T19:24:33.062Z,100170.22
2022-11-14T19:26:59.383Z,100197.78
2022-11-14T19:29:25.814Z,100191.88
2022-11-14T19:31:53.213Z,100284.66
2022-11-14T19:34:19.533Z,100204.59
2022-11-14T19:36:59.233Z,100288.53
2022-11-14T19:39:26.673Z,100259.53
2022-11-14T19:41:53.098Z,100185.19
2022-11-14T19:44:19.710Z,100246.09
2022-11-14T19:46:47.869Z,100282.50
2022-11-14T19:49:14.685Z,100268.94
2022-11-14T19:51:41.034Z,100285.19
2022-11-14T19:54:10.316Z,100302.44
2022-11-14T19:56:37.058Z,100195.91
2022-11-14T19:59:09.550Z,100299.63
2022-11-14T20:01:44.186Z,100241.50
2022-11-14T20:04:13.099Z,100069.00
2022-11-14T20:06:44.047Z,100236.59
2022-11-14T20:09:10.894Z,100312.00
2022-11-14T20:11:37.831Z,100309.31
2022-11-14T20:14:05.567Z,100278.38
2022-11-14T20:16:34.181Z,100294.34
2022-11-14T20:19:01.765Z,100298.59
2022-11-14T20:21:32.780Z,100179.06
2022-11-14T20:23:59.426Z,100230.59
2022-11-14T20:26:25.885Z,100165.44
2022-11-14T20:28:55.035Z,100293.97
2022-11-14T20:31:25.569Z,100191.16
2022-11-14T20:33:53.876Z,100288.94
2022-11-14T20:36:24.185Z,100157.56
2022-11-14T20:38:52.065Z,100156.34
2022-11-14T20:41:19.926Z,100202.03
2022-11-14T20:43:47.015Z,100288.50
2022-11-14T20:46:16.150Z,100105.66
2022-11-14T20:48:43.312Z,100150.38
2022-11-14T20:51:19.443Z,100262.75
2022-11-14T20:53:51.009Z,100251.22
2022-11-14T20:56:18.114Z,100192.78
2022-11-14T20:58:48.503Z,100222.31
2022-11-14T21:01:16.082Z,100269.78
2022-11-14T21:03:42.568Z,100251.06
2022-11-14T21:06:12.252Z,100281.75
2022-11-14T21:08:39.572Z,100284.38
2022-11-14T21:11:18.185Z,100268.06
2022-11-14T21:13:57.081Z,100244.72
2022-11-14T21:16:32.413Z,100276.06
2022-11-14T21:18:59.578Z,100178.06
2022-11-14T21:21:27.422Z,100252.75
2022-11-14T21:23:54.837Z,100197.78
2022-11-14T21:26:24.535Z,100233.81
2022-11-14T21:28:54.791Z,100244.09
2022-11-14T21:31:31.554Z,100260.34
2022-11-14T21:33:59.455Z,100261.88
2022-11-14T21:36:44.260Z,100247.72
2022-11-14T21:39:14.910Z,100224.19
2022-11-14T21:41:42.331Z,100148.03
2022-11-14T21:44:12.841Z,100203.53
2022-11-14T21:46:39.242Z,100240.25
2022-11-14T21:49:05.587Z,100158.75
2022-11-14T21:51:32.003Z,100243.75
2022-11-14T21:53:58.552Z,100170.72
2022-11-14T21:56:27.593Z,100227.16
2022-11-14T21:59:13.080Z,100160.25
2022-11-14T22:02:02.724Z,100253.44
2022-11-14T22:04:29.489Z,100182.28
2022-11-14T22:06:56.082Z,100241.66
2022-11-14T22:09:22.676Z,100230.59
2022-11-14T22:11:49.063Z,100242.47
2022-11-14T22:14:15.450Z,100237.34
2022-11-14T22:16:41.876Z,100223.78
2022-11-14T22:19:08.504Z,100144.84
2022-11-14T22:21:34.861Z,100122.25
2022-11-14T22:24:01.224Z,100172.81
2022-11-14T22:26:27.797Z,100238.06
2022-11-14T22:28:54.138Z,100226.16
2022-11-14T22:31:22.667Z,100262.03
2022-11-14T22:33:51.336Z,100270.63
2022-11-14T22:36:23.664Z,100135.06
2022-11-14T22:38:52.370Z,100163.41
2022-11-14T22:41:28.997Z,100192.44
2022-11-14T22:43:58.689Z,100261.84
2022-11-14T22:46:25.362Z,100255.72
2022-11-14T22:48:51.778Z,100105.81
2022-11-14T22:51:21.162Z,100258.28
2022-11-14T22:53:50.118Z,100157.78
2022-11-14T22:56:18.372Z,100239.31
2022-11-14T22:58:45.745Z,100226.38
2022-11-14T23:01:14.502Z,100080.00
2022-11-14T23:03:41.183Z,100237.69
2022-11-14T23:06:14.283Z,100118.38
2022-11-14T23:08:41.106Z,100216.00
2022-11-14T23:11:10.717Z,100268.41
2022-11-14T23:13:38.740Z,100235.88
2022-11-14T23:16:07.859Z,100206.53
2022-11-14T23:18:34.228Z,100143.91
2022-11-14T23:21:12.303Z,100087.22
2022-11-14T23:23:38.803Z,100243.25
2022-11-14T23:26:07.533Z,100126.59
2022-11-14T23:28:34.619Z,100253.38
2022-11-14T23:31:01.702Z,100251.50
2022-11-14T23:33:28.512Z,100220.72
2022-11-14T23:35:55.024Z,100148.63
2022-11-14T23:38:21.387Z,100170.13
2022-11-14T23:40:59.460Z,100155.28
2022-11-14T23:43:26.327Z,100190.25
2022-11-14T23:45:52.790Z,100139.81
2022-11-14T23:48:20.790Z,100230.38
2022-11-14T23:50:55.467Z,100232.09
2022-11-14T23:53:22.690Z,100234.75
2022-11-14T23:55:57.269Z,100226.88
2022-11-14T23:58:25.132Z,100226.88
